sensor_id;sensor_type;location;lat;lon;timestamp;pressure;altitude;pressure_sealevel;temperature;humidity
49397;BME280;35615;41.410;2.194;2023-04-26T00:02:24;101492.34;;;21.18;53.23
49397;BME280;35615;41.410;2.194;2023-04-26T00:04:53;101491.47;;;21.17;53.37
49397;BME280;35615;41.410;2.194;2023-04-26T00:07:23;101492.38;;;21.21;53.07
49397;BME280;35615;41.410;2.194;2023-04-26T00:09:54;101494.22;;;21.33;52.99
49397;BME280;35615;41.410;2.194;2023-04-26T00:12:21;101491.47;;;21.17;52.87
49397;BME280;35615;41.410;2.194;2023-04-26T00:14:48;101498.56;;;21.28;52.97
49397;BME280;35615;41.410;2.194;2023-04-26T00:17:16;101496.00;;;21.38;52.93
49397;BME280;35615;41.410;2.194;2023-04-26T00:19:43;101491.59;;;21.36;53.01
49397;BME280;35615;41.410;2.194;2023-04-26T00:22:11;101498.50;;;21.18;52.85
49397;BME280;35615;41.410;2.194;2023-04-26T00:24:38;101494.22;;;21.36;52.89
49397;BME280;35615;41.410;2.194;2023-04-26T00:27:06;101497.72;;;21.29;52.44
49397;BME280;35615;41.410;2.194;2023-04-26T00:29:36;101499.50;;;21.36;52.60
49397;BME280;35615;41.410;2.194;2023-04-26T00:32:04;101490.72;;;21.34;52.46
49397;BME280;35615;41.410;2.194;2023-04-26T00:34:35;101503.00;;;21.35;52.33
49397;BME280;35615;41.410;2.194;2023-04-26T00:37:04;101496.84;;;21.30;52.52
49397;BME280;35615;41.410;2.194;2023-04-26T00:39:31;101499.38;;;21.22;52.58
49397;BME280;35615;41.410;2.194;2023-04-26T00:41:59;101490.72;;;21.31;52.60
49397;BME280;35615;41.410;2.194;2023-04-26T00:44:26;101479.31;;;21.29;52.29
49397;BME280;35615;41.410;2.194;2023-04-26T00:46:56;101473.13;;;21.25;52.39
49397;BME280;35615;41.410;2.194;2023-04-26T00:49:24;101483.69;;;21.30;52.49
49397;BME280;35615;41.410;2.194;2023-04-26T00:51:55;101477.53;;;21.26;52.13
49397;BME280;35615;41.410;2.194;2023-04-26T00:54:23;101482.84;;;21.34;52.23
49397;BME280;35615;41.410;2.194;2023-04-26T00:56:53;101474.06;;;21.32;52.43
49397;BME280;35615;41.410;2.194;2023-04-26T01:02:30;101484.56;;;21.29;52.41
49397;BME280;35615;41.410;2.194;2023-04-26T01:04:58;101481.03;;;21.27;52.10
49397;BME280;35615;41.410;2.194;2023-04-26T01:07:26;101478.41;;;21.28;52.31
49397;BME280;35615;41.410;2.194;2023-04-26T01:09:54;101477.41;;;21.14;52.50
49397;BME280;35615;41.410;2.194;2023-04-26T01:12:23;101479.22;;;21.18;52.48
49397;BME280;35615;41.410;2.194;2023-04-26T01:14:50;101478.44;;;21.31;52.15
49397;BME280;35615;41.410;2.194;2023-04-26T01:17:21;101478.41;;;21.28;52.16
49397;BME280;35615;41.410;2.194;2023-04-26T01:19:51;101474.06;;;21.32;52.08
49397;BME280;35615;41.410;2.194;2023-04-26T01:22:19;101477.53;;;21.28;52.13
49397;BME280;35615;41.410;2.194;2023-04-26T01:24:50;101480.22;;;21.32;52.13
49397;BME280;35615;41.410;2.194;2023-04-26T01:27:19;101483.72;;;21.31;51.82
49397;BME280;35615;41.410;2.194;2023-04-26T01:29:49;101479.28;;;21.26;51.91
49397;BME280;35615;41.410;2.194;2023-04-26T01:32:16;101471.41;;;21.27;52.18
49397;BME280;35615;41.410;2.194;2023-04-26T01:34:43;101468.81;;;21.35;51.99
49397;BME280;35615;41.410;2.194;2023-04-26T01:37:11;101467.00;;;21.26;52.19
49397;BME280;35615;41.410;2.194;2023-04-26T01:39:38;101465.31;;;21.33;52.02
49397;BME280;35615;41.410;2.194;2023-04-26T01:42:06;101467.94;;;21.33;51.78
49397;BME280;35615;41.410;2.194;2023-04-26T01:44:33;101468.81;;;21.30;51.73
49397;BME280;35615;41.410;2.194;2023-04-26T01:47:02;101467.84;;;21.17;52.09
49397;BME280;35615;41.410;2.194;2023-04-26T01:49:30;101473.97;;;21.24;51.72
49397;BME280;35615;41.410;2.194;2023-04-26T01:52:00;101473.22;;;21.36;51.97
49397;BME280;35615;41.410;2.194;2023-04-26T01:54:28;101479.38;;;21.42;51.73
49397;BME280;35615;41.410;2.194;2023-04-26T01:56:56;101474.94;;;21.34;51.90
49397;BME280;35615;41.410;2.194;2023-04-26T01:59:23;101467.97;;;21.39;51.72
49397;BME280;35615;41.410;2.194;2023-04-26T02:01:52;101470.56;;;21.34;51.95
49397;BME280;35615;41.410;2.194;2023-04-26T02:04:19;101465.31;;;21.33;51.62
49397;BME280;35615;41.410;2.194;2023-04-26T02:06:46;101466.97;;;21.23;51.56
49397;BME280;35615;41.410;2.194;2023-04-26T02:09:15;101466.09;;;21.23;52.01
49397;BME280;35615;41.410;2.194;2023-04-26T02:11:43;101472.31;;;21.34;51.98
49397;BME280;35615;41.410;2.194;2023-04-26T02:14:10;101464.44;;;21.34;51.99
49397;BME280;35615;41.410;2.194;2023-04-26T02:16:38;101460.84;;;21.23;51.74
49397;BME280;35615;41.410;2.194;2023-04-26T02:19:06;101462.69;;;21.31;51.52
49397;BME280;35615;41.410;2.194;2023-04-26T02:21:58;101455.63;;;21.27;51.59
49397;BME280;35615;41.410;2.194;2023-04-26T02:24:26;101458.31;;;21.32;51.71
49397;BME280;35615;41.410;2.194;2023-04-26T02:26:53;101459.19;;;21.31;51.78
49397;BME280;35615;41.410;2.194;2023-04-26T02:29:20;101450.41;;;21.32;51.68
49397;BME280;35615;41.410;2.194;2023-04-26T02:32:08;101447.78;;;21.30;51.72
49397;BME280;35615;41.410;2.194;2023-04-26T02:34:35;101441.50;;;21.14;52.21
49397;BME280;35615;41.410;2.194;2023-04-26T02:37:02;101446.81;;;21.21;51.98
49397;BME280;35615;41.410;2.194;2023-04-26T02:39:30;101445.97;;;21.25;51.93
49397;BME280;35615;41.410;2.194;2023-04-26T02:41:57;101439.03;;;21.39;51.29
49397;BME280;35615;41.410;2.194;2023-04-26T02:44:28;101438.16;;;21.35;51.42
49397;BME280;35615;41.410;2.194;2023-04-26T02:46:57;101438.06;;;21.25;51.19
49397;BME280;35615;41.410;2.194;2023-04-26T02:49:24;101432.75;;;21.11;51.51
49397;BME280;35615;41.410;2.194;2023-04-26T02:51:52;101435.44;;;21.18;51.78
49397;BME280;35615;41.410;2.194;2023-04-26T02:54:19;101442.53;;;21.29;51.35
49397;BME280;35615;41.410;2.194;2023-04-26T02:56:46;101449.56;;;21.36;51.08
49397;BME280;35615;41.410;2.194;2023-04-26T02:59:14;101448.69;;;21.38;51.43
49397;BME280;35615;41.410;2.194;2023-04-26T03:01:41;101460.94;;;21.30;51.28
49397;BME280;35615;41.410;2.194;2023-04-26T03:04:11;101460.88;;;21.27;51.61
49397;BME280;35615;41.410;2.194;2023-04-26T03:06:39;101455.56;;;21.20;51.91
49397;BME280;35615;41.410;2.194;2023-04-26T03:09:07;101458.19;;;21.20;51.39
49397;BME280;35615;41.410;2.194;2023-04-26T03:11:34;101465.22;;;21.25;51.77
49397;BME280;35615;41.410;2.194;2023-04-26T03:14:01;101464.34;;;21.20;51.41
49397;BME280;35615;41.410;2.194;2023-04-26T03:16:29;101459.88;;;21.08;51.59
49397;BME280;35615;41.410;2.194;2023-04-26T03:18:57;101452.88;;;21.10;51.71
49397;BME280;35615;41.410;2.194;2023-04-26T03:21:25;101445.91;;;21.15;51.65
49397;BME280;35615;41.410;2.194;2023-04-26T03:23:54;101448.50;;;21.12;51.60
49397;BME280;35615;41.410;2.194;2023-04-26T03:26:21;101445.00;;;21.07;51.82
49397;BME280;35615;41.410;2.194;2023-04-26T03:28:49;101438.81;;;21.01;51.59
49397;BME280;35615;41.410;2.194;2023-04-26T03:31:17;101436.13;;;20.90;51.90
49397;BME280;35615;41.410;2.194;2023-04-26T03:33:45;101439.63;;;20.92;51.75
49397;BME280;35615;41.410;2.194;2023-04-26T03:36:12;101436.13;;;20.90;51.82
49397;BME280;35615;41.410;2.194;2023-04-26T03:38:42;101434.28;;;20.81;52.12
49397;BME280;35615;41.410;2.194;2023-04-26T03:41:12;101426.53;;;20.97;51.49
49397;BME280;35615;41.410;2.194;2023-04-26T03:43:40;101433.56;;;20.99;51.57
49397;BME280;35615;41.410;2.194;2023-04-26T03:46:07;101426.53;;;21.00;51.63
49397;BME280;35615;41.410;2.194;2023-04-26T03:48:35;101421.22;;;20.89;51.69
49397;BME280;35615;41.410;2.194;2023-04-26T03:51:02;101416.00;;;20.94;51.86
49397;BME280;35615;41.410;2.194;2023-04-26T03:53:29;101417.72;;;20.92;51.60
49397;BME280;35615;41.410;2.194;2023-04-26T03:55:56;101421.25;;;20.94;51.95
49397;BME280;35615;41.410;2.194;2023-04-26T03:58:24;101429.16;;;20.97;51.63
49397;BME280;35615;41.410;2.194;2023-04-26T04:00:55;101435.31;;;20.99;51.38
49397;BME280;35615;41.410;2.194;2023-04-26T04:03:24;101428.22;;;20.85;51.81
49397;BME280;35615;41.410;2.194;2023-04-26T04:05:51;101429.13;;;20.92;51.56
49397;BME280;35615;41.410;2.194;2023-04-26T04:08:18;101437.81;;;20.82;51.95
49397;BME280;35615;41.410;2.194;2023-04-26T04:10:46;101437.81;;;20.82;51.94
49397;BME280;35615;41.410;2.194;2023-04-26T04:13:13;101443.03;;;20.74;52.08
49397;BME280;35615;41.410;2.194;2023-04-26T04:15:40;101436.91;;;20.81;52.23
49397;BME280;35615;41.410;2.194;2023-04-26T04:18:08;101446.53;;;20.81;51.89
49397;BME280;35615;41.410;2.194;2023-04-26T04:20:35;101448.31;;;20.82;51.87
49397;BME280;35615;41.410;2.194;2023-04-26T04:23:02;101451.78;;;20.76;51.88
49397;BME280;35615;41.410;2.194;2023-04-26T04:25:33;101457.03;;;20.75;52.13
49397;BME280;35615;41.410;2.194;2023-04-26T04:28:04;101453.53;;;20.74;51.97
49397;BME280;35615;41.410;2.194;2023-04-26T04:30:32;101446.56;;;20.82;52.20
49397;BME280;35615;41.410;2.194;2023-04-26T04:33:02;101448.28;;;20.77;52.23
49397;BME280;35615;41.410;2.194;2023-04-26T04:35:34;101449.25;;;20.92;51.58
49397;BME280;35615;41.410;2.194;2023-04-26T04:38:04;101443.94;;;20.82;51.91
49397;BME280;35615;41.410;2.194;2023-04-26T04:40:31;101446.63;;;20.92;51.41
49397;BME280;35615;41.410;2.194;2023-04-26T04:42:59;101444.84;;;20.86;51.86
49397;BME280;35615;41.410;2.194;2023-04-26T04:45:30;101445.81;;;21.02;51.28
49397;BME280;35615;41.410;2.194;2023-04-26T04:47:58;101452.81;;;20.98;51.39
49397;BME280;35615;41.410;2.194;2023-04-26T04:50:26;101452.00;;;21.11;51.04
49397;BME280;35615;41.410;2.194;2023-04-26T04:52:54;101453.75;;;21.08;51.48
49397;BME280;35615;41.410;2.194;2023-04-26T04:55:22;101452.00;;;21.08;51.33
49397;BME280;35615;41.410;2.194;2023-04-26T04:57:50;101458.09;;;21.06;51.38
49397;BME280;35615;41.410;2.194;2023-04-26T05:00:18;101458.88;;;20.93;51.60
49397;BME280;35615;41.410;2.194;2023-04-26T05:02:50;101460.72;;;21.03;51.28
49397;BME280;35615;41.410;2.194;2023-04-26T05:05:18;101465.09;;;21.05;51.49
49397;BME280;35615;41.410;2.194;2023-04-26T05:07:46;101465.97;;;21.06;51.27
49397;BME280;35615;41.410;2.194;2023-04-26T05:10:14;101464.28;;;21.12;51.22
49397;BME280;35615;41.410;2.194;2023-04-26T05:12:41;101471.28;;;21.12;51.26
49397;BME280;35615;41.410;2.194;2023-04-26T05:15:09;101476.66;;;21.26;51.35
49397;BME280;35615;41.410;2.194;2023-04-26T05:17:36;101483.66;;;21.27;51.24
49397;BME280;35615;41.410;2.194;2023-04-26T05:20:24;101479.16;;;21.13;51.75
49397;BME280;35615;41.410;2.194;2023-04-26T05:22:52;101491.44;;;21.13;51.83
49397;BME280;35615;41.410;2.194;2023-04-26T05:25:19;101487.84;;;20.97;52.34
49397;BME280;35615;41.410;2.194;2023-04-26T05:27:53;101491.41;;;21.08;52.10
49397;BME280;35615;41.410;2.194;2023-04-26T05:30:35;101493.16;;;21.06;52.23
49397;BME280;35615;41.410;2.194;2023-04-26T05:33:16;101493.09;;;20.96;51.97
49397;BME280;35615;41.410;2.194;2023-04-26T05:35:54;101507.13;;;21.05;51.78
49397;BME280;35615;41.410;2.194;2023-04-26T05:38:24;101501.88;;;21.05;51.94
49397;BME280;35615;41.410;2.194;2023-04-26T05:40:52;101508.84;;;20.96;51.88
49397;BME280;35615;41.410;2.194;2023-04-26T05:43:19;101518.47;;;20.97;51.86
49397;BME280;35615;41.410;2.194;2023-04-26T05:45:54;101516.75;;;21.05;51.88
49397;BME280;35615;41.410;2.194;2023-04-26T05:48:24;101522.94;;;21.07;51.52
49397;BME280;35615;41.410;2.194;2023-04-26T05:50:54;101525.50;;;20.98;51.96
49397;BME280;35615;41.410;2.194;2023-04-26T05:53:22;101536.84;;;20.95;52.08
49397;BME280;35615;41.410;2.194;2023-04-26T05:55:52;101524.63;;;21.03;52.14
49397;BME280;35615;41.410;2.194;2023-04-26T05:58:20;101536.88;;;20.97;51.97
49397;BME280;35615;41.410;2.194;2023-04-26T06:00:50;101530.75;;;21.02;51.81
49397;BME280;35615;41.410;2.194;2023-04-26T06:03:18;101543.91;;;21.04;51.80
49397;BME280;35615;41.410;2.194;2023-04-26T06:05:45;101530.75;;;21.02;52.12
49397;BME280;35615;41.410;2.194;2023-04-26T06:08:13;101532.41;;;20.85;52.09
49397;BME280;35615;41.410;2.194;2023-04-26T06:10:43;101534.16;;;20.86;52.18
49397;BME280;35615;41.410;2.194;2023-04-26T06:13:13;101540.38;;;20.97;52.09
49397;BME280;35615;41.410;2.194;2023-04-26T06:15:41;101550.00;;;21.00;51.78
49397;BME280;35615;41.410;2.194;2023-04-26T06:18:09;101549.91;;;20.87;52.01
49397;BME280;35615;41.410;2.194;2023-04-26T06:20:37;101551.84;;;21.07;51.63
49397;BME280;35615;41.410;2.194;2023-04-26T06:23:07;101555.38;;;21.12;51.93
49397;BME280;35615;41.410;2.194;2023-04-26T06:25:35;101557.91;;;21.03;51.81
49397;BME280;35615;41.410;2.194;2023-04-26T06:28:04;101562.38;;;21.11;51.96
49397;BME280;35615;41.410;2.194;2023-04-26T06:30:32;101566.75;;;21.12;51.68
49397;BME280;35615;41.410;2.194;2023-04-26T06:33:13;101561.56;;;21.18;51.58
49397;BME280;35615;41.410;2.194;2023-04-26T06:35:59;101562.34;;;21.07;51.77
49397;BME280;35615;41.410;2.194;2023-04-26T06:38:30;101567.59;;;21.08;51.56
49397;BME280;35615;41.410;2.194;2023-04-26T06:41:00;101560.63;;;21.13;51.73
49397;BME280;35615;41.410;2.194;2023-04-26T06:43:30;101557.19;;;21.21;51.66
49397;BME280;35615;41.410;2.194;2023-04-26T06:46:01;101564.25;;;21.26;51.19
49397;BME280;35615;41.410;2.194;2023-04-26T06:48:31;101556.50;;;21.40;51.28
49397;BME280;35615;41.410;2.194;2023-04-26T06:51:04;101557.09;;;21.08;52.17
49397;BME280;35615;41.410;2.194;2023-04-26T06:53:37;101556.44;;;21.38;51.55
49397;BME280;35615;41.410;2.194;2023-04-26T06:56:04;101562.59;;;21.37;52.00
49397;BME280;35615;41.410;2.194;2023-04-26T06:58:32;101560.88;;;21.44;51.79
49397;BME280;35615;41.410;2.194;2023-04-26T07:01:02;101552.19;;;21.51;51.99
49397;BME280;35615;41.410;2.194;2023-04-26T07:03:32;101564.38;;;21.41;52.83
49397;BME280;35615;41.410;2.194;2023-04-26T07:06:00;101563.50;;;21.39;52.85
49397;BME280;35615;41.410;2.194;2023-04-26T07:08:28;101563.47;;;21.38;53.07
49397;BME280;35615;41.410;2.194;2023-04-26T07:10:58;101562.66;;;21.48;53.18
49397;BME280;35615;41.410;2.194;2023-04-26T07:13:25;101554.81;;;21.51;52.96
49397;BME280;35615;41.410;2.194;2023-04-26T07:15:53;101559.88;;;21.28;53.71
49397;BME280;35615;41.410;2.194;2023-04-26T07:18:21;101556.50;;;21.48;53.02
49397;BME280;35615;41.410;2.194;2023-04-26T07:20:49;101567.97;;;21.57;52.84
49397;BME280;35615;41.410;2.194;2023-04-26T07:23:17;101565.34;;;21.59;53.09
49397;BME280;35615;41.410;2.194;2023-04-26T07:25:44;101568.84;;;21.56;52.86
49397;BME280;35615;41.410;2.194;2023-04-26T07:28:12;101563.50;;;21.39;53.08
49397;BME280;35615;41.410;2.194;2023-04-26T07:30:40;101560.13;;;21.62;52.73
49397;BME280;35615;41.410;2.194;2023-04-26T07:33:08;101554.00;;;21.67;52.87
49397;BME280;35615;41.410;2.194;2023-04-26T07:35:35;101551.38;;;21.66;53.40
49397;BME280;35615;41.410;2.194;2023-04-26T07:38:02;101562.78;;;21.65;53.41
49397;BME280;35615;41.410;2.194;2023-04-26T07:40:31;101563.59;;;21.61;53.38
49397;BME280;35615;41.410;2.194;2023-04-26T07:43:02;101560.97;;;21.56;53.13
49397;BME280;35615;41.410;2.194;2023-04-26T07:45:45;101559.28;;;21.67;53.12
49397;BME280;35615;41.410;2.194;2023-04-26T07:48:15;101561.97;;;21.78;53.00
49397;BME280;35615;41.410;2.194;2023-04-26T07:50:43;101566.41;;;21.93;52.56
49397;BME280;35615;41.410;2.194;2023-04-26T07:53:10;101567.22;;;21.83;52.27
49397;BME280;35615;41.410;2.194;2023-04-26T07:55:38;101560.16;;;21.68;52.61
49397;BME280;35615;41.410;2.194;2023-04-26T07:58:05;101574.22;;;21.79;52.47
49397;BME280;35615;41.410;2.194;2023-04-26T08:00:34;101569.06;;;21.99;51.69
49397;BME280;35615;41.410;2.194;2023-04-26T08:03:06;101567.41;;;22.10;51.49
49397;BME280;35615;41.410;2.194;2023-04-26T08:05:35;101561.31;;;22.37;50.95
49397;BME280;35615;41.410;2.194;2023-04-26T08:08:03;101569.22;;;22.37;51.01
49397;BME280;35615;41.410;2.194;2023-04-26T08:10:30;101567.44;;;22.21;51.06
49397;BME280;35615;41.410;2.194;2023-04-26T08:13:01;101564.91;;;22.51;50.51
49397;BME280;35615;41.410;2.194;2023-04-26T08:15:30;101569.31;;;22.74;49.92
49397;BME280;35615;41.410;2.194;2023-04-26T08:17:58;101572.00;;;22.95;49.46
49397;BME280;35615;41.410;2.194;2023-04-26T08:20:26;101572.81;;;22.82;49.46
49397;BME280;35615;41.410;2.194;2023-04-26T08:22:57;101568.47;;;23.16;48.76
49397;BME280;35615;41.410;2.194;2023-04-26T08:25:25;101561.38;;;23.48;47.94
49397;BME280;35615;41.410;2.194;2023-04-26T08:27:56;101566.66;;;23.61;48.18
49397;BME280;35615;41.410;2.194;2023-04-26T08:30:27;101568.25;;;24.11;47.78
49397;BME280;35615;41.410;2.194;2023-04-26T08:32:57;101577.09;;;23.99;47.58
49397;BME280;35615;41.410;2.194;2023-04-26T08:35:24;101576.88;;;24.48;47.44
49397;BME280;35615;41.410;2.194;2023-04-26T08:37:57;101569.06;;;24.25;48.15
49397;BME280;35615;41.410;2.194;2023-04-26T08:40:27;101572.56;;;24.25;48.49
49397;BME280;35615;41.410;2.194;2023-04-26T08:42:56;101572.56;;;24.34;48.53
49397;BME280;35615;41.410;2.194;2023-04-26T08:45:24;101577.66;;;24.65;47.86
49397;BME280;35615;41.410;2.194;2023-04-26T08:47:57;101588.47;;;24.16;48.61
49397;BME280;35615;41.410;2.194;2023-04-26T08:50:32;101590.09;;;24.52;47.88
49397;BME280;35615;41.410;2.194;2023-04-26T08:53:00;101590.84;;;24.68;48.10
49397;BME280;35615;41.410;2.194;2023-04-26T08:55:29;101596.38;;;24.21;49.01
49397;BME280;35615;41.410;2.194;2023-04-26T08:58:02;101593.69;;;24.34;48.75
49397;BME280;35615;41.410;2.194;2023-04-26T09:00:31;101601.63;;;24.25;49.06
49397;BME280;35615;41.410;2.194;2023-04-26T09:02:58;101593.75;;;24.15;49.74
49397;BME280;35615;41.410;2.194;2023-04-26T09:05:26;101595.16;;;24.84;48.69
49397;BME280;35615;41.410;2.194;2023-04-26T09:08:03;101602.19;;;24.87;47.54
49397;BME280;35615;41.410;2.194;2023-04-26T09:10:34;101602.34;;;24.59;48.79
49397;BME280;35615;41.410;2.194;2023-04-26T09:13:01;101611.16;;;24.58;48.45
49397;BME280;35615;41.410;2.194;2023-04-26T09:15:29;101611.16;;;24.58;48.18
49397;BME280;35615;41.410;2.194;2023-04-26T09:18:18;101615.69;;;24.41;48.60
49397;BME280;35615;41.410;2.194;2023-04-26T09:21:01;101618.34;;;24.29;48.82
49397;BME280;35615;41.410;2.194;2023-04-26T09:23:31;101616.59;;;24.29;49.03
49397;BME280;35615;41.410;2.194;2023-04-26T09:26:31;101619.34;;;23.94;49.67
49397;BME280;35615;41.410;2.194;2023-04-26T09:29:17;101627.34;;;23.73;50.44
49397;BME280;35615;41.410;2.194;2023-04-26T09:31:48;101625.56;;;23.28;51.81
49397;BME280;35615;41.410;2.194;2023-04-26T09:34:16;101633.47;;;23.05;52.30
49397;BME280;35615;41.410;2.194;2023-04-26T09:36:54;101638.75;;;22.99;52.11
49397;BME280;35615;41.410;2.194;2023-04-26T09:39:39;101652.69;;;22.58;53.28
49397;BME280;35615;41.410;2.194;2023-04-26T09:42:16;101646.53;;;22.59;53.08
49397;BME280;35615;41.410;2.194;2023-04-26T09:44:46;101646.50;;;22.50;53.50
49397;BME280;35615;41.410;2.194;2023-04-26T09:47:14;101648.41;;;22.84;52.82
49397;BME280;35615;41.410;2.194;2023-04-26T09:49:47;101642.28;;;23.14;52.69
49397;BME280;35615;41.410;2.194;2023-04-26T09:52:20;101644.91;;;23.11;52.47
49397;BME280;35615;41.410;2.194;2023-04-26T09:54:52;101661.56;;;22.87;52.74
49397;BME280;35615;41.410;2.194;2023-04-26T09:57:21;101664.00;;;22.39;53.51
49397;BME280;35615;41.410;2.194;2023-04-26T09:59:51;101664.97;;;22.53;53.44
49397;BME280;35615;41.410;2.194;2023-04-26T10:02:26;101662.91;;;22.00;54.81
49397;BME280;35615;41.410;2.194;2023-04-26T10:04:55;101669.94;;;22.05;54.74
49397;BME280;35615;41.410;2.194;2023-04-26T10:07:24;101653.16;;;21.84;55.57
49397;BME280;35615;41.410;2.194;2023-04-26T10:09:54;101662.94;;;22.04;55.26
49397;BME280;35615;41.410;2.194;2023-04-26T10:12:26;101665.63;;;22.06;55.47
49397;BME280;35615;41.410;2.194;2023-04-26T10:14:56;101667.50;;;22.33;55.18
49397;BME280;35615;41.410;2.194;2023-04-26T10:17:24;101662.94;;;22.01;56.16
49397;BME280;35615;41.410;2.194;2023-04-26T10:19:55;101665.63;;;22.08;55.99
49397;BME280;35615;41.410;2.194;2023-04-26T10:22:38;101670.03;;;22.13;55.96
49397;BME280;35615;41.410;2.194;2023-04-26T10:25:08;101672.53;;;21.93;56.14
49397;BME280;35615;41.410;2.194;2023-04-26T10:30:10;101673.38;;;21.86;54.90
49397;BME280;35615;41.410;2.194;2023-04-26T10:35:26;101664.75;;;22.07;54.93
49397;BME280;35615;41.410;2.194;2023-04-26T10:40:38;101669.06;;;22.00;54.22
49397;BME280;35615;41.410;2.194;2023-04-26T10:45:43;101669.28;;;22.39;53.09
49397;BME280;35615;41.410;2.194;2023-04-26T10:54:14;101651.94;;;23.57;50.80
49397;BME280;35615;41.410;2.194;2023-04-26T10:59:10;101647.53;;;23.82;49.61
49397;BME280;35615;41.410;2.194;2023-04-26T11:01:59;101639.47;;;24.24;48.49
49397;BME280;35615;41.410;2.194;2023-04-26T11:04:49;101651.84;;;24.12;47.94
49397;BME280;35615;41.410;2.194;2023-04-26T11:07:36;101644.78;;;24.23;47.37
49397;BME280;35615;41.410;2.194;2023-04-26T11:10:07;101642.28;;;23.54;49.06
49397;BME280;35615;41.410;2.194;2023-04-26T11:12:41;101632.63;;;23.65;48.67
49397;BME280;35615;41.410;2.194;2023-04-26T11:15:12;101623.81;;;23.33;49.60
49397;BME280;35615;41.410;2.194;2023-04-26T11:17:39;101627.34;;;23.21;50.11
49397;BME280;35615;41.410;2.194;2023-04-26T11:20:17;101621.16;;;22.92;50.96
49397;BME280;35615;41.410;2.194;2023-04-26T11:22:48;101628.22;;;23.11;50.40
49397;BME280;35615;41.410;2.194;2023-04-26T11:25:15;101629.97;;;23.13;50.22
49397;BME280;35615;41.410;2.194;2023-04-26T11:27:42;101616.78;;;23.76;49.15
49397;BME280;35615;41.410;2.194;2023-04-26T11:30:17;101610.47;;;24.12;49.09
49397;BME280;35615;41.410;2.194;2023-04-26T11:32:46;101603.41;;;24.28;49.34
49397;BME280;35615;41.410;2.194;2023-04-26T11:35:14;101614.81;;;24.30;49.22
49397;BME280;35615;41.410;2.194;2023-04-26T11:37:44;101614.09;;;23.82;49.88
49397;BME280;35615;41.410;2.194;2023-04-26T11:40:15;101604.28;;;24.22;49.50
49397;BME280;35615;41.410;2.194;2023-04-26T11:42:45;101609.75;;;23.44;51.45
49397;BME280;35615;41.410;2.194;2023-04-26T11:45:16;101605.28;;;23.91;50.43
49397;BME280;35615;41.410;2.194;2023-04-26T11:47:47;101609.75;;;23.67;50.96
49397;BME280;35615;41.410;2.194;2023-04-26T11:50:14;101601.78;;;23.86;50.43
49397;BME280;35615;41.410;2.194;2023-04-26T11:52:42;101587.50;;;24.43;49.38
49397;BME280;35615;41.410;2.194;2023-04-26T11:55:10;101601.63;;;24.34;48.99
49397;BME280;35615;41.410;2.194;2023-04-26T11:57:37;101589.34;;;24.18;49.09
49397;BME280;35615;41.410;2.194;2023-04-26T12:00:13;101577.81;;;24.42;48.48
49397;BME280;35615;41.410;2.194;2023-04-26T12:02:48;101592.00;;;24.17;49.36
49397;BME280;35615;41.410;2.194;2023-04-26T12:05:28;101590.41;;;23.67;50.55
49397;BME280;35615;41.410;2.194;2023-04-26T12:08:01;101599.97;;;23.94;49.95
49397;BME280;35615;41.410;2.194;2023-04-26T12:10:34;101584.03;;;24.32;49.49
49397;BME280;35615;41.410;2.194;2023-04-26T12:13:15;101584.97;;;24.17;49.00
49397;BME280;35615;41.410;2.194;2023-04-26T12:15:45;101588.25;;;24.60;48.09
49397;BME280;35615;41.410;2.194;2023-04-26T12:18:20;101569.03;;;24.34;48.45
49397;BME280;35615;41.410;2.194;2023-04-26T12:21:06;101586.91;;;23.43;50.61
49397;BME280;35615;41.410;2.194;2023-04-26T12:23:37;101570.19;;;23.58;50.34
49397;BME280;35615;41.410;2.194;2023-04-26T12:29:13;101577.22;;;23.38;51.32
49397;BME280;35615;41.410;2.194;2023-04-26T12:31:51;101574.56;;;23.48;50.99
49397;BME280;35615;41.410;2.194;2023-04-26T12:34:22;101583.38;;;23.60;50.87
49397;BME280;35615;41.410;2.194;2023-04-26T12:36:50;101577.13;;;23.90;50.20
49397;BME280;35615;41.410;2.194;2023-04-26T12:39:17;101570.84;;;24.23;49.25
49397;BME280;35615;41.410;2.194;2023-04-26T12:41:44;101567.50;;;23.76;50.18
49397;BME280;35615;41.410;2.194;2023-04-26T12:44:12;101571.88;;;23.82;49.48
49397;BME280;35615;41.410;2.194;2023-04-26T12:46:40;101573.53;;;24.11;49.10
49397;BME280;35615;41.410;2.194;2023-04-26T12:49:10;101579.84;;;23.58;50.57
49397;BME280;35615;41.410;2.194;2023-04-26T12:51:39;101577.22;;;23.59;50.50
49397;BME280;35615;41.410;2.194;2023-04-26T12:54:09;101575.50;;;23.32;51.73
49397;BME280;35615;41.410;2.194;2023-04-26T12:56:36;101570.22;;;23.31;51.56
49397;BME280;35615;41.410;2.194;2023-04-26T12:59:17;101572.78;;;23.70;51.04
49397;BME280;35615;41.410;2.194;2023-04-26T13:01:52;101580.78;;;23.12;52.07
49397;BME280;35615;41.410;2.194;2023-04-26T13:04:20;101574.63;;;23.18;51.96
49397;BME280;35615;41.410;2.194;2023-04-26T13:06:54;101564.06;;;23.41;51.38
49397;BME280;35615;41.410;2.194;2023-04-26T13:09:25;101570.16;;;23.70;50.98
49397;BME280;35615;41.410;2.194;2023-04-26T13:11:53;101561.06;;;24.43;48.75
49397;BME280;35615;41.410;2.194;2023-04-26T13:14:51;101564.81;;;23.92;48.99
49397;BME280;35615;41.410;2.194;2023-04-26T13:17:35;101562.28;;;23.37;50.73
49397;BME280;35615;41.410;2.194;2023-04-26T13:20:09;101568.41;;;22.82;51.68
49397;BME280;35615;41.410;2.194;2023-04-26T13:22:43;101569.34;;;22.86;51.95
49397;BME280;35615;41.410;2.194;2023-04-26T13:25:21;101560.53;;;22.79;52.17
49397;BME280;35615;41.410;2.194;2023-04-26T13:28:03;101556.13;;;22.72;52.47
49397;BME280;35615;41.410;2.194;2023-04-26T13:33:37;101553.56;;;22.84;51.71
49397;BME280;35615;41.410;2.194;2023-04-26T13:36:11;101549.13;;;22.74;51.69